createdAt,value
2022-08-09T00:00:11.991Z,48.69
2022-08-09T00:02:42.898Z,49.48
2022-08-09T00:06:17.445Z,49.21
2022-08-09T00:08:10.150Z,50.08
2022-08-09T00:10:39.321Z,50.42
2022-08-09T00:13:16.738Z,50.49
2022-08-09T00:15:58.721Z,51.01
2022-08-09T00:18:27.315Z,51.25
2022-08-09T00:20:55.908Z,51.49
2022-08-09T00:23:55.409Z,52.35
2022-08-09T00:26:11.032Z,52.29
2022-08-09T00:28:39.719Z,52.71
2022-08-09T00:31:55.820Z,53.15
2022-08-09T00:33:56.016Z,53.76
2022-08-09T00:36:29.752Z,54.16
2022-08-09T00:38:58.109Z,53.89
2022-08-09T00:44:14.814Z,54.21
2022-08-09T00:44:26.029Z,55.00
2022-08-09T00:46:57.830Z,54.90
2022-08-09T00:49:33.785Z,55.56
2022-08-09T00:52:05.587Z,55.92
2022-08-09T00:54:36.133Z,56.23
2022-08-09T00:57:08.770Z,56.76
2022-08-09T00:59:41.502Z,57.84
2022-08-09T01:02:18.162Z,57.81
2022-08-09T01:05:51.951Z,57.81
2022-08-09T01:08:26.667Z,58.01
2022-08-09T01:11:03.707Z,58.36
2022-08-09T01:14:00.186Z,58.77
2022-08-09T01:16:47.070Z,58.93
2022-08-09T01:20:01.753Z,58.43
2022-08-09T01:24:00.994Z,58.46
2022-08-09T01:26:11.025Z,58.82
2022-08-09T01:28:46.030Z,59.16
2022-08-09T01:32:30.207Z,58.71
2022-08-09T01:34:08.922Z,58.80
2022-08-09T01:36:36.989Z,59.09
2022-08-09T01:39:06.957Z,58.98
2022-08-09T01:41:36.450Z,58.74
2022-08-09T01:44:22.765Z,57.90
2022-08-09T01:46:53.091Z,57.09
2022-08-09T01:49:24.109Z,57.19
2022-08-09T01:51:56.530Z,56.89
2022-08-09T01:54:32.934Z,56.36
2022-08-09T01:57:08.137Z,56.04
2022-08-09T01:59:50.863Z,56.75
2022-08-09T02:02:31.163Z,56.58
2022-08-09T02:05:05.639Z,56.92
2022-08-09T02:08:38.673Z,57.79
2022-08-09T02:10:42.889Z,58.23
2022-08-09T02:13:20.003Z,58.32
2022-08-09T02:15:51.591Z,58.56
2022-08-09T02:18:23.756Z,58.40
2022-08-09T02:20:58.849Z,58.75
2022-08-09T02:23:43.174Z,59.31
2022-08-09T02:26:27.221Z,59.68
2022-08-09T02:29:11.476Z,60.82
2022-08-09T02:31:43.762Z,61.65
2022-08-09T02:34:40.140Z,62.83
2022-08-09T02:37:12.227Z,63.48
2022-08-09T02:39:45.102Z,63.33
2022-08-09T02:42:28.012Z,63.84
2022-08-09T02:45:02.042Z,63.94
2022-08-09T02:47:33.699Z,64.01
2022-08-09T02:50:20.987Z,64.70
2022-08-09T02:52:55.597Z,64.54
2022-08-09T02:55:46.372Z,64.16
2022-08-09T02:58:32.686Z,64.52
2022-08-09T03:01:08.168Z,64.24
2022-08-09T03:04:18.164Z,65.24
2022-08-09T03:06:28.174Z,66.57
2022-08-09T03:08:57.397Z,67.45
2022-08-09T03:11:29.682Z,67.11
2022-08-09T03:14:14.361Z,67.45
2022-08-09T03:16:47.588Z,68.11
2022-08-09T03:19:52.449Z,68.05
2022-08-09T03:22:12.394Z,68.19
2022-08-09T03:27:45.397Z,69.21
2022-08-09T03:30:14.313Z,70.09
2022-08-09T03:32:58.883Z,70.68
2022-08-09T03:36:11.408Z,70.49
2022-08-09T03:38:28.491Z,70.17
2022-08-09T03:40:56.383Z,70.22
2022-08-09T03:43:23.390Z,70.18
2022-08-09T03:46:04.727Z,70.11
2022-08-09T03:48:51.020Z,70.16
2022-08-09T03:51:56.665Z,69.91
2022-08-09T03:54:11.431Z,68.61
2022-08-09T03:56:41.234Z,69.59
2022-08-09T03:59:17.155Z,69.55
2022-08-09T04:01:59.181Z,68.70
2022-08-09T04:04:36.277Z,68.71
2022-08-09T04:07:06.711Z,68.56
2022-08-09T04:09:41.708Z,68.83
2022-08-09T04:12:30.577Z,67.04
2022-08-09T04:15:11.448Z,65.59
2022-08-09T04:17:42.269Z,65.05
2022-08-09T04:20:12.289Z,65.00
2022-08-09T04:22:41.387Z,65.09
2022-08-09T04:25:11.709Z,64.41
2022-08-09T04:27:48.823Z,63.91
2022-08-09T04:30:20.669Z,63.66
2022-08-09T04:32:47.918Z,63.39
2022-08-09T04:35:15.475Z,63.37
2022-08-09T04:37:46.323Z,62.37
2022-08-09T04:40:19.106Z,62.00
2022-08-09T04:42:48.541Z,61.88
2022-08-09T04:45:20.547Z,61.48
2022-08-09T04:48:00.137Z,60.70
2022-08-09T04:50:33.575Z,61.50
2022-08-09T04:53:02.398Z,62.15
2022-08-09T04:55:38.949Z,61.45
2022-08-09T04:58:17.799Z,61.99
2022-08-09T05:00:45.091Z,61.76
2022-08-09T05:03:39.987Z,62.31
2022-08-09T05:06:07.052Z,62.04
2022-08-09T05:08:35.048Z,61.51
2022-08-09T05:11:02.888Z,61.71
2022-08-09T05:13:32.872Z,61.17
2022-08-09T05:16:01.450Z,60.06
2022-08-09T05:18:39.414Z,60.00
2022-08-09T05:21:22.888Z,60.13
2022-08-09T05:23:58.378Z,59.37
2022-08-09T05:26:37.032Z,58.41
2022-08-09T05:29:17.317Z,58.18
2022-08-09T05:31:50.743Z,57.59
2022-08-09T05:34:26.065Z,55.99
2022-08-09T05:37:01.660Z,55.64
2022-08-09T05:39:36.413Z,55.30
2022-08-09T05:42:09.929Z,54.33
2022-08-09T05:44:45.176Z,52.74
2022-08-09T05:47:17.380Z,51.38
2022-08-09T05:50:30.292Z,51.30
2022-08-09T05:52:31.816Z,49.99
2022-08-09T05:55:03.149Z,49.40
2022-08-09T05:57:51.356Z,48.19
2022-08-09T06:00:29.674Z,47.31
2022-08-09T06:03:01.928Z,46.37
2022-08-09T06:05:54.782Z,46.00
2022-08-09T06:08:19.873Z,44.21
2022-08-09T06:10:55.744Z,43.89
2022-08-09T06:13:23.396Z,44.30
2022-08-09T06:15:52.266Z,43.15
2022-08-09T06:18:25.294Z,42.74
2022-08-09T06:20:57.946Z,42.80
2022-08-09T06:23:59.021Z,41.41
2022-08-09T06:26:20.560Z,40.16
2022-08-09T06:29:00.004Z,40.94
2022-08-09T06:31:40.599Z,41.69
2022-08-09T06:34:18.122Z,41.62
2022-08-09T06:36:45.309Z,40.87
2022-08-09T06:39:12.940Z,39.36
2022-08-09T06:42:08.841Z,37.55
2022-08-09T06:44:31.071Z,38.23
2022-08-09T06:46:58.221Z,37.33
2022-08-09T06:49:44.412Z,37.24
2022-08-09T06:52:15.848Z,37.02
2022-08-09T06:54:43.665Z,36.20
2022-08-09T06:57:12.147Z,36.35
2022-08-09T07:00:50.100Z,35.94
2022-08-09T07:02:30.996Z,36.36
2022-08-09T07:05:00.146Z,35.91
2022-08-09T07:07:59.136Z,36.15
2022-08-09T07:10:22.504Z,36.08
2022-08-09T07:12:57.055Z,35.22
2022-08-09T07:16:35.324Z,33.88
2022-08-09T07:18:14.344Z,34.57
2022-08-09T07:20:43.333Z,33.68
2022-08-09T07:23:19.594Z,33.03
2022-08-09T07:25:52.203Z,32.95
2022-08-09T07:28:26.404Z,32.00
2022-08-09T07:30:55.781Z,31.73
2022-08-09T07:33:23.151Z,31.82
2022-08-09T07:35:53.843Z,30.98
2022-08-09T07:38:23.490Z,31.32
2022-08-09T07:41:10.034Z,30.79
2022-08-09T07:43:41.076Z,28.22
2022-08-09T07:46:19.069Z,28.53
2022-08-09T07:48:59.607Z,27.59
2022-08-09T07:52:04.352Z,26.26
2022-08-09T07:54:27.611Z,26.87
2022-08-09T07:56:55.362Z,26.03
2022-08-09T07:59:34.871Z,24.76
2022-08-09T08:02:09.551Z,24.49
2022-08-09T08:04:37.349Z,22.92
2022-08-09T08:07:15.155Z,24.19
2022-08-09T08:10:07.527Z,22.99
2022-08-09T08:12:42.893Z,23.12
2022-08-09T08:15:23.226Z,22.51
2022-08-09T08:17:57.981Z,22.78
2022-08-09T08:20:30.647Z,22.97
2022-08-09T08:23:06.773Z,22.44
2022-08-09T08:25:48.302Z,22.48
2022-08-09T08:28:32.203Z,22.18
2022-08-09T08:31:08.836Z,21.88
2022-08-09T08:33:52.451Z,21.56
2022-08-09T08:36:28.633Z,18.29
2022-08-09T08:38:56.988Z,19.04
2022-08-09T08:41:24.742Z,19.46
2022-08-09T08:44:09.641Z,20.44
2022-08-09T08:47:02.975Z,19.74
2022-08-09T08:49:38.488Z,19.68
2022-08-09T08:52:48.457Z,20.49
2022-08-09T08:55:05.607Z,19.54
2022-08-09T08:57:34.831Z,20.04
2022-08-09T09:00:12.760Z,20.45
2022-08-09T09:02:52.526Z,20.25
2022-08-09T09:05:42.086Z,20.32
2022-08-09T09:08:31.098Z,19.32
2022-08-09T09:11:02.901Z,20.60
2022-08-09T09:13:41.870Z,19.32
2022-08-09T09:16:29.870Z,17.62
2022-08-09T09:19:22.785Z,18.15
2022-08-09T09:22:07.993Z,18.24
2022-08-09T09:24:46.105Z,18.47
2022-08-09T09:28:03.808Z,18.81
2022-08-09T09:30:40.013Z,18.96
2022-08-09T09:33:02.065Z,19.61
2022-08-09T09:36:01.921Z,19.40
2022-08-09T09:38:50.963Z,18.62
2022-08-09T09:41:23.697Z,18.56
2022-08-09T09:44:12.055Z,18.31
2022-08-09T09:46:45.986Z,16.88
2022-08-09T09:49:49.759Z,16.83
2022-08-09T09:52:16.589Z,15.23
2022-08-09T09:55:32.280Z,14.51
2022-08-09T09:58:17.948Z,14.73
2022-08-09T10:00:55.018Z,13.84
2022-08-09T10:03:57.470Z,13.92
2022-08-09T10:06:32.314Z,14.00
2022-08-09T10:09:02.702Z,13.89
2022-08-09T10:12:00.307Z,14.22
2022-08-09T10:14:33.126Z,13.29
2022-08-09T10:17:24.418Z,12.69
2022-08-09T10:19:59.311Z,13.59
2022-08-09T10:22:39.187Z,13.16
2022-08-09T10:25:11.827Z,13.50
2022-08-09T10:27:45.401Z,12.00
2022-08-09T10:32:03.793Z,12.29
2022-08-09T10:34:04.476Z,13.36
2022-08-09T10:36:00.922Z,12.88
2022-08-09T10:38:54.620Z,12.69
2022-08-09T10:41:18.749Z,11.70
2022-08-09T10:43:59.287Z,11.46
2022-08-09T10:46:54.758Z,12.45
2022-08-09T10:49:50.804Z,12.11
2022-08-09T10:52:27.418Z,11.98
2022-08-09T10:54:55.671Z,12.21
2022-08-09T10:57:36.392Z,11.94
2022-08-09T11:00:37.151Z,12.58
2022-08-09T11:03:51.361Z,12.31
2022-08-09T11:06:23.186Z,12.12
2022-08-09T11:08:53.170Z,12.22
2022-08-09T11:11:23.396Z,12.41
2022-08-09T11:14:28.201Z,11.60
2022-08-09T11:16:57.175Z,12.54
2022-08-09T11:20:19.683Z,12.74
2022-08-09T11:22:55.407Z,11.97
2022-08-09T11:25:45.362Z,12.05
2022-08-09T11:28:38.533Z,11.50
2022-08-09T11:31:43.385Z,11.84
2022-08-09T11:34:42.872Z,11.83
2022-08-09T11:37:18.172Z,11.43
2022-08-09T11:40:05.877Z,12.22
2022-08-09T11:42:41.055Z,12.03
2022-08-09T11:45:42.674Z,11.54
2022-08-09T11:48:26.188Z,12.00
2022-08-09T11:52:48.640Z,12.03
2022-08-09T11:54:01.800Z,12.19
2022-08-09T11:56:41.989Z,11.80
2022-08-09T11:59:30.579Z,12.71
2022-08-09T12:02:18.456Z,11.61
2022-08-09T12:04:57.933Z,11.54
2022-08-09T12:07:41.493Z,11.85
2022-08-09T12:10:14.450Z,12.54
2022-08-09T12:12:57.915Z,12.53
2022-08-09T12:15:49.778Z,11.75
2022-08-09T12:18:30.342Z,12.49
2022-08-09T12:21:00.732Z,11.63
2022-08-09T12:23:56.662Z,11.70
2022-08-09T12:26:25.896Z,12.16
2022-08-09T12:29:10.641Z,13.16
2022-08-09T12:32:01.763Z,15.57
2022-08-09T12:34:38.906Z,16.75
2022-08-09T12:37:21.931Z,16.53
2022-08-09T12:40:23.031Z,16.50
2022-08-09T12:42:51.030Z,16.69
2022-08-09T12:45:34.298Z,15.33
2022-08-09T12:48:20.061Z,14.16
2022-08-09T12:50:57.920Z,14.62
2022-08-09T12:53:35.031Z,15.86
2022-08-09T12:56:39.582Z,16.24
2022-08-09T12:59:14.283Z,15.43
2022-08-09T13:01:49.901Z,15.01
2022-08-09T13:04:37.174Z,15.30
2022-08-09T13:07:19.933Z,15.56
2022-08-09T13:10:02.948Z,14.34
2022-08-09T13:12:30.806Z,15.49
2022-08-09T13:15:09.798Z,15.62
2022-08-09T13:18:02.860Z,13.89
2022-08-09T13:20:37.756Z,14.43
2022-08-09T13:24:53.838Z,15.23
2022-08-09T13:26:37.252Z,14.61
2022-08-09T13:29:28.635Z,15.32
2022-08-09T13:32:20.387Z,14.43
2022-08-09T13:34:54.767Z,16.65
2022-08-09T13:37:51.138Z,17.09
2022-08-09T13:41:45.824Z,15.75
2022-08-09T13:42:57.978Z,16.53
2022-08-09T13:45:32.616Z,16.17
2022-08-09T13:48:12.107Z,16.96
2022-08-09T13:50:42.499Z,16.11
2022-08-09T13:53:10.406Z,16.77
2022-08-09T13:55:37.921Z,16.07
2022-08-09T13:58:07.990Z,16.30
2022-08-09T14:00:50.393Z,16.50
2022-08-09T14:04:01.229Z,16.46
2022-08-09T14:06:14.769Z,16.27
2022-08-09T14:08:47.071Z,15.74
2022-08-09T14:11:16.287Z,16.00
2022-08-09T14:14:22.538Z,16.27
2022-08-09T14:16:31.175Z,16.09
2022-08-09T14:18:59.513Z,15.34
2022-08-09T14:21:29.226Z,15.10
2022-08-09T14:23:57.487Z,15.54
2022-08-09T14:26:32.917Z,15.25
2022-08-09T14:29:08.302Z,15.39
2022-08-09T14:31:53.386Z,15.50
2022-08-09T14:34:31.645Z,15.17
2022-08-09T14:37:06.306Z,15.56
2022-08-09T14:39:39.839Z,16.38
2022-08-09T14:42:08.049Z,15.88
2022-08-09T14:44:48.793Z,15.59
2022-08-09T14:47:27.413Z,16.20
2022-08-09T14:50:09.234Z,16.59
2022-08-09T14:52:38.161Z,16.30
2022-08-09T14:55:07.042Z,16.25
2022-08-09T14:57:43.101Z,15.68
2022-08-09T15:00:11.117Z,16.42
2022-08-09T15:02:39.214Z,15.99
2022-08-09T15:05:07.646Z,15.85
2022-08-09T15:07:35.449Z,16.19
2022-08-09T15:10:11.048Z,16.45
2022-08-09T15:12:44.989Z,16.34
2022-08-09T15:15:13.093Z,16.05
2022-08-09T15:17:42.676Z,16.07
2022-08-09T15:20:15.348Z,16.86
2022-08-09T15:24:02.246Z,16.44
2022-08-09T15:25:55.611Z,15.98
2022-08-09T15:28:27.437Z,16.10
2022-08-09T15:31:10.200Z,16.54
2022-08-09T15:34:32.769Z,16.18
2022-08-09T15:36:30.514Z,16.49
2022-08-09T15:39:00.896Z,16.76
2022-08-09T15:41:32.283Z,17.21
2022-08-09T15:44:01.790Z,16.73
2022-08-09T15:46:34.260Z,16.39
2022-08-09T15:49:22.403Z,16.51
2022-08-09T15:52:04.378Z,17.60
2022-08-09T15:54:48.362Z,18.40
2022-08-09T15:57:35.162Z,18.32
2022-08-09T16:00:24.637Z,18.83
2022-08-09T16:02:54.815Z,19.73
2022-08-09T16:05:26.693Z,19.16
2022-08-09T16:08:24.657Z,19.35
2022-08-09T16:10:59.525Z,18.99
2022-08-09T16:14:06.333Z,18.91
2022-08-09T16:16:18.352Z,19.21
2022-08-09T16:18:46.830Z,18.89
2022-08-09T16:21:17.571Z,18.45
2022-08-09T16:23:54.782Z,18.63
2022-08-09T16:26:35.629Z,18.67
2022-08-09T16:29:12.542Z,17.80
2022-08-09T16:32:20.065Z,18.27
2022-08-09T16:34:54.400Z,17.88
2022-08-09T16:37:54.627Z,18.10
2022-08-09T16:40:11.101Z,17.87
2022-08-09T16:42:44.813Z,18.26
2022-08-09T16:45:14.624Z,17.89
2022-08-09T16:48:38.781Z,17.92
2022-08-09T16:50:34.120Z,18.39
2022-08-09T16:53:02.331Z,18.38
2022-08-09T16:55:59.677Z,18.12
2022-08-09T16:58:18.618Z,18.63
2022-08-09T17:00:46.467Z,18.53
2022-08-09T17:03:20.873Z,18.68
2022-08-09T17:06:08.549Z,18.47
2022-08-09T17:09:02.871Z,18.55
2022-08-09T17:11:41.137Z,19.17
2022-08-09T17:14:26.139Z,19.21
2022-08-09T17:17:01.454Z,19.47
2022-08-09T17:20:05.209Z,19.48
2022-08-09T17:22:24.027Z,19.67
2022-08-09T17:25:03.603Z,20.02
2022-08-09T17:27:38.273Z,20.04
2022-08-09T17:30:07.193Z,19.89
2022-08-09T17:32:44.365Z,20.12
2022-08-09T17:35:14.219Z,20.77
2022-08-09T17:38:02.176Z,21.56
2022-08-09T17:40:31.844Z,21.79
2022-08-09T17:43:10.659Z,22.59
2022-08-09T17:46:05.818Z,22.75
2022-08-09T17:48:38.648Z,22.55
2022-08-09T17:51:19.513Z,22.49
2022-08-09T17:53:54.554Z,23.25
2022-08-09T17:56:35.629Z,23.06
2022-08-09T17:59:09.602Z,23.96
2022-08-09T18:02:03.538Z,23.18
2022-08-09T18:04:26.131Z,23.54
2022-08-09T18:06:55.299Z,23.79
2022-08-09T18:09:40.971Z,24.18
2022-08-09T18:12:17.663Z,24.48
2022-08-09T18:14:53.415Z,24.87
2022-08-09T18:17:27.698Z,25.16
2022-08-09T18:20:56.512Z,25.53
2022-08-09T18:22:57.849Z,25.13
2022-08-09T18:25:53.537Z,25.02
2022-08-09T18:30:35.675Z,25.43
2022-08-09T18:31:06.020Z,25.42
2022-08-09T18:33:34.525Z,25.68
2022-08-09T18:36:01.676Z,25.54
2022-08-09T18:38:29.040Z,25.67
2022-08-09T18:40:56.373Z,25.83
2022-08-09T18:43:25.037Z,26.47
2022-08-09T18:46:50.150Z,27.43
2022-08-09T18:48:42.542Z,27.49
2022-08-09T18:51:09.940Z,27.62
2022-08-09T18:54:01.020Z,27.71
2022-08-09T18:56:28.240Z,27.98
2022-08-09T18:59:01.239Z,27.96
2022-08-09T19:01:28.604Z,27.86
2022-08-09T19:04:10.630Z,28.01
2022-08-09T19:06:38.669Z,28.05
2022-08-09T19:09:07.675Z,28.03
2022-08-09T19:11:41.681Z,28.25
2022-08-09T19:14:08.778Z,29.41
2022-08-09T19:16:36.273Z,29.92
2022-08-09T19:19:21.280Z,30.84
2022-08-09T19:22:05.140Z,31.82
2022-08-09T19:24:39.369Z,33.10
2022-08-09T19:27:21.894Z,33.09
2022-08-09T19:30:21.082Z,33.63
2022-08-09T19:32:36.966Z,34.07
2022-08-09T19:35:05.522Z,34.47
2022-08-09T19:37:54.342Z,35.04
2022-08-09T19:40:21.320Z,35.32
2022-08-09T19:42:49.802Z,35.38
2022-08-09T19:45:17.742Z,35.58
2022-08-09T19:47:45.749Z,35.87
2022-08-09T19:50:50.331Z,35.22
2022-08-09T19:53:04.250Z,35.23
2022-08-09T19:56:02.294Z,35.36
2022-08-09T19:58:29.967Z,35.80
2022-08-09T20:00:58.238Z,35.21
2022-08-09T20:04:09.656Z,35.53
2022-08-09T20:06:23.085Z,35.30
2022-08-09T20:08:56.745Z,35.42
2022-08-09T20:11:42.903Z,36.02
2022-08-09T20:14:16.677Z,35.61
2022-08-09T20:16:53.430Z,35.68
2022-08-09T20:19:42.966Z,35.95
2022-08-09T20:22:09.734Z,35.82
2022-08-09T20:24:37.217Z,35.87
2022-08-09T20:27:08.910Z,35.87
2022-08-09T20:29:39.363Z,35.61
2022-08-09T20:32:33.328Z,36.02
2022-08-09T20:34:56.231Z,36.05
2022-08-09T20:37:23.592Z,36.33
2022-08-09T20:40:16.080Z,36.88
2022-08-09T20:42:38.032Z,36.58
2022-08-09T20:45:59.897Z,36.82
2022-08-09T20:47:54.951Z,36.51
2022-08-09T20:50:47.746Z,36.25
2022-08-09T20:53:35.756Z,36.47
2022-08-09T20:56:02.410Z,36.26
2022-08-09T20:58:32.236Z,36.05
2022-08-09T21:01:32.490Z,36.38
2022-08-09T21:04:08.981Z,35.93
2022-08-09T21:06:36.670Z,36.06
2022-08-09T21:09:11.865Z,36.00
2022-08-09T21:14:30.843Z,35.87
2022-08-09T21:17:00.507Z,35.83
2022-08-09T21:20:18.199Z,35.88
2022-08-09T21:22:37.735Z,35.41
2022-08-09T21:25:21.138Z,35.97
2022-08-09T21:27:52.479Z,35.50
2022-08-09T21:30:28.536Z,36.40
2022-08-09T21:32:57.134Z,36.28
2022-08-09T21:35:24.324Z,36.67
2022-08-09T21:37:59.187Z,37.31
2022-08-09T21:40:30.775Z,38.38
2022-08-09T21:43:06.085Z,38.25
2022-08-09T21:45:39.063Z,38.48
2022-08-09T21:48:07.610Z,38.88
2022-08-09T21:50:38.689Z,39.54
2022-08-09T21:53:19.909Z,40.19
2022-08-09T21:55:56.559Z,41.36
2022-08-09T21:58:30.958Z,41.46
2022-08-09T22:00:58.614Z,42.50
2022-08-09T22:03:26.245Z,42.12
2022-08-09T22:05:55.659Z,42.50
2022-08-09T22:08:28.573Z,42.94
2022-08-09T22:11:50.465Z,43.22
2022-08-09T22:13:43.797Z,43.71
2022-08-09T22:16:12.136Z,44.69
2022-08-09T22:18:54.484Z,45.55
2022-08-09T22:21:24.811Z,45.96
2022-08-09T22:23:59.689Z,46.89
2022-08-09T22:26:35.223Z,47.66
2022-08-09T22:29:07.427Z,48.61
2022-08-09T22:31:37.166Z,48.46
2022-08-09T22:34:14.595Z,49.35
2022-08-09T22:36:46.101Z,49.21
2022-08-09T22:39:46.824Z,49.68
2022-08-09T22:42:16.142Z,50.41
2022-08-09T22:45:11.508Z,51.69
2022-08-09T22:48:13.313Z,52.75
2022-08-09T22:50:24.234Z,53.19
2022-08-09T22:52:54.842Z,53.37
2022-08-09T22:55:33.771Z,54.09
2022-08-09T22:58:07.527Z,54.92
2022-08-09T23:00:36.264Z,55.43
2022-08-09T23:03:04.452Z,56.06
2022-08-09T23:05:39.850Z,56.51
2022-08-09T23:08:31.672Z,57.66
2022-08-09T23:10:59.126Z,58.38
2022-08-09T23:13:26.019Z,59.29
2022-08-09T23:16:03.297Z,61.15
2022-08-09T23:18:31.268Z,61.36
2022-08-09T23:20:58.273Z,61.77
2022-08-09T23:23:25.346Z,62.94
2022-08-09T23:25:52.391Z,63.34
2022-08-09T23:28:19.737Z,63.71
2022-08-09T23:30:51.881Z,65.14
2022-08-09T23:33:23.325Z,66.26
2022-08-09T23:36:06.042Z,65.98
2022-08-09T23:38:48.155Z,67.18
2022-08-09T23:41:27.802Z,67.85
2022-08-09T23:43:55.404Z,68.32
2022-08-09T23:46:22.470Z,68.20
2022-08-09T23:48:50.563Z,68.26
2022-08-09T23:51:17.756Z,68.55
2022-08-09T23:53:44.710Z,68.98
2022-08-09T23:56:14.326Z,69.23
2022-08-09T23:58:41.632Z,69.29
